createdAt,value
2019-02-22T00:00:09.887Z,31.50
2019-02-22T00:02:39.602Z,27.10
2019-02-22T00:05:08.071Z,31.07
2019-02-22T00:07:36.277Z,29.90
2019-02-22T00:10:07.125Z,29.03
2019-02-22T00:12:35.194Z,30.87
2019-02-22T00:15:03.646Z,29.77
2019-02-22T00:17:31.730Z,30.97
2019-02-22T00:19:59.883Z,32.40
2019-02-22T00:22:27.991Z,30.17
2019-02-22T00:24:56.055Z,31.63
2019-02-22T00:27:24.344Z,30.40
2019-02-22T00:29:52.496Z,31.07
2019-02-22T00:32:20.588Z,28.80
2019-02-22T00:34:49.060Z,28.40
2019-02-22T00:37:17.141Z,30.37
2019-02-22T00:43:40.779Z,29.63
2019-02-22T00:46:09.244Z,29.53
2019-02-22T00:48:37.719Z,30.53
2019-02-22T00:51:05.817Z,25.53
2019-02-22T00:53:33.867Z,30.40
2019-02-22T00:56:02.443Z,28.80
2019-02-22T00:58:30.590Z,27.30
2019-02-22T01:00:58.679Z,29.77
2019-02-22T01:03:26.741Z,26.13
2019-02-22T01:05:54.881Z,27.93
2019-02-22T01:08:22.991Z,32.07
2019-02-22T01:10:51.147Z,30.83
2019-02-22T01:13:19.240Z,29.30
2019-02-22T01:15:47.286Z,28.20
2019-02-22T01:18:15.582Z,30.40
2019-02-22T01:20:54.051Z,28.67
2019-02-22T01:23:14.547Z,30.30
2019-02-22T01:25:43.123Z,26.87
2019-02-22T01:28:11.227Z,27.13
2019-02-22T01:30:39.655Z,28.40
2019-02-22T01:33:07.954Z,31.63
2019-02-22T01:35:36.242Z,24.67
2019-02-22T01:38:04.450Z,21.57
2019-02-22T01:40:43.212Z,23.27
2019-02-22T01:43:02.760Z,22.37
2019-02-22T01:45:30.931Z,20.23
2019-02-22T01:48:00.274Z,21.37
2019-02-22T01:50:29.350Z,20.93
2019-02-22T01:52:57.425Z,20.50
2019-02-22T01:55:25.517Z,19.50
2019-02-22T01:57:54.140Z,19.67
2019-02-22T02:00:22.450Z,19.07
2019-02-22T02:02:50.822Z,19.67
2019-02-22T02:05:19.164Z,19.23
2019-02-22T02:07:47.888Z,17.23
2019-02-22T02:10:16.082Z,18.33
2019-02-22T02:12:44.238Z,18.33
2019-02-22T02:15:12.458Z,17.70
2019-02-22T02:17:41.027Z,17.93
2019-02-22T02:20:09.980Z,18.80
2019-02-22T02:22:38.127Z,18.07
2019-02-22T02:25:08.041Z,19.70
2019-02-22T02:27:36.297Z,19.63
2019-02-22T02:30:05.342Z,19.40
2019-02-22T02:32:33.370Z,20.00
2019-02-22T02:35:01.530Z,20.30
2019-02-22T02:37:29.700Z,17.93
2019-02-22T02:39:57.951Z,17.27
2019-02-22T02:42:26.064Z,17.30
2019-02-22T02:44:54.227Z,17.73
2019-02-22T02:47:23.043Z,18.57
2019-02-22T02:49:51.149Z,18.23
2019-02-22T02:52:19.678Z,18.57
2019-02-22T02:54:47.764Z,17.20
2019-02-22T02:57:15.877Z,17.47
2019-02-22T02:59:43.949Z,18.53
2019-02-22T03:02:22.291Z,17.97
2019-02-22T03:04:50.347Z,17.40
2019-02-22T03:07:40.851Z,18.90
2019-02-22T03:10:09.135Z,17.97
2019-02-22T03:12:37.331Z,17.43
2019-02-22T03:15:08.029Z,18.80
2019-02-22T03:17:36.754Z,18.03
2019-02-22T03:20:05.333Z,16.80
2019-02-22T03:22:33.505Z,15.60
2019-02-22T03:25:01.777Z,17.50
2019-02-22T03:27:30.003Z,16.53
2019-02-22T03:29:58.175Z,17.33
2019-02-22T03:32:26.436Z,16.50
2019-02-22T03:34:54.979Z,16.97
2019-02-22T03:37:24.135Z,16.57
2019-02-22T03:39:52.456Z,16.70
2019-02-22T03:42:20.755Z,15.17
2019-02-22T03:44:51.917Z,14.67
2019-02-22T03:47:20.073Z,15.57
2019-02-22T03:49:49.154Z,15.43
2019-02-22T03:52:39.666Z,15.27
2019-02-22T03:55:07.975Z,14.03
2019-02-22T03:57:37.276Z,14.77
2019-02-22T04:00:06.651Z,15.07
2019-02-22T04:02:35.009Z,14.30
2019-02-22T04:05:03.566Z,14.30
2019-02-22T04:07:31.729Z,14.60
2019-02-22T04:10:00.033Z,16.10
2019-02-22T04:12:28.426Z,15.53
2019-02-22T04:14:56.608Z,15.37
2019-02-22T04:17:24.881Z,14.40
2019-02-22T04:19:53.070Z,14.87
2019-02-22T04:22:21.112Z,14.27
2019-02-22T04:24:50.349Z,14.87
2019-02-22T04:27:18.935Z,16.27
2019-02-22T04:29:47.039Z,14.60
2019-02-22T04:32:15.485Z,15.47
2019-02-22T04:34:44.199Z,14.63
2019-02-22T04:37:12.340Z,13.90
2019-02-22T04:39:41.022Z,14.07
2019-02-22T04:42:09.251Z,13.97
2019-02-22T04:44:37.523Z,13.83
2019-02-22T04:47:05.614Z,14.10
2019-02-22T04:49:34.237Z,13.93
2019-02-22T04:52:02.298Z,13.37
2019-02-22T04:54:30.355Z,13.40
2019-02-22T04:56:58.850Z,12.90
2019-02-22T04:59:26.940Z,13.43
2019-02-22T05:01:55.200Z,13.77
2019-02-22T05:04:23.425Z,12.50
2019-02-22T05:06:52.108Z,12.43
2019-02-22T05:09:20.381Z,13.07
2019-02-22T05:11:48.624Z,13.23
2019-02-22T05:14:16.778Z,12.77
2019-02-22T05:16:44.847Z,13.07
2019-02-22T05:19:12.999Z,12.90
2019-02-22T05:21:41.594Z,12.37
2019-02-22T05:24:09.682Z,12.10
2019-02-22T05:26:38.248Z,11.67
2019-02-22T05:29:06.460Z,12.57
2019-02-22T05:31:35.038Z,12.57
2019-02-22T05:34:03.213Z,11.10
2019-02-22T05:36:31.246Z,11.83
2019-02-22T05:38:59.518Z,11.57
2019-02-22T05:41:32.163Z,13.37
2019-02-22T05:44:00.377Z,11.73
2019-02-22T05:46:29.238Z,12.87
2019-02-22T05:48:57.366Z,12.17
2019-02-22T05:51:25.459Z,11.93
2019-02-22T05:53:53.605Z,12.67
2019-02-22T05:56:21.681Z,13.07
2019-02-22T05:58:49.770Z,12.60
2019-02-22T06:01:19.290Z,12.10
2019-02-22T06:03:47.514Z,12.80
2019-02-22T06:06:15.743Z,13.30
2019-02-22T06:08:43.796Z,13.23
2019-02-22T06:11:12.591Z,12.50
2019-02-22T06:13:40.659Z,13.73
2019-02-22T06:16:08.773Z,13.87
2019-02-22T06:18:36.875Z,13.57
2019-02-22T06:21:05.130Z,15.17
2019-02-22T06:23:33.207Z,14.90
2019-02-22T06:26:01.946Z,14.57
2019-02-22T06:28:31.911Z,12.87
2019-02-22T06:30:59.976Z,14.00
2019-02-22T06:33:28.327Z,15.33
2019-02-22T06:35:56.452Z,14.30
2019-02-22T06:38:25.043Z,15.27
2019-02-22T06:40:53.194Z,15.17
2019-02-22T06:43:21.643Z,15.03
2019-02-22T06:45:49.802Z,13.77
2019-02-22T06:48:17.908Z,13.20
2019-02-22T06:50:46.012Z,15.87
2019-02-22T06:53:15.134Z,14.67
2019-02-22T06:55:43.315Z,15.77
2019-02-22T06:58:11.884Z,14.60
2019-02-22T07:00:40.033Z,15.07
2019-02-22T07:03:08.108Z,15.27
2019-02-22T07:05:37.033Z,15.97
2019-02-22T07:08:05.097Z,17.63
2019-02-22T07:10:52.979Z,17.07
2019-02-22T07:13:21.109Z,16.80
2019-02-22T07:15:49.395Z,17.17
2019-02-22T07:18:17.566Z,16.77
2019-02-22T07:20:46.383Z,16.97
2019-02-22T07:23:14.469Z,15.83
2019-02-22T07:25:42.589Z,17.47
2019-02-22T07:28:10.737Z,16.90
2019-02-22T07:30:38.843Z,18.63
2019-02-22T07:33:07.127Z,18.27
2019-02-22T07:35:35.340Z,17.57
2019-02-22T07:38:03.419Z,19.37
2019-02-22T07:40:31.593Z,18.47
2019-02-22T07:43:07.707Z,19.00
2019-02-22T07:45:29.767Z,20.13
2019-02-22T07:47:57.919Z,19.50
2019-02-22T07:50:26.079Z,20.20
2019-02-22T07:52:54.297Z,20.17
2019-02-22T07:55:22.429Z,19.03
2019-02-22T07:57:50.559Z,20.17
2019-02-22T08:00:18.651Z,18.87
2019-02-22T08:02:47.563Z,20.03
2019-02-22T08:05:15.803Z,20.17
2019-02-22T08:07:44.210Z,18.87
2019-02-22T08:10:12.413Z,19.13
2019-02-22T08:12:40.690Z,20.17
2019-02-22T08:15:10.572Z,18.13
2019-02-22T08:17:38.860Z,20.33
2019-02-22T08:20:07.671Z,20.20
2019-02-22T08:22:35.962Z,21.93
2019-02-22T08:25:04.267Z,19.77
2019-02-22T08:27:32.497Z,22.37
2019-02-22T08:30:00.831Z,22.30
2019-02-22T08:32:28.944Z,22.43
2019-02-22T08:34:57.097Z,21.83
2019-02-22T08:37:25.224Z,23.43
2019-02-22T08:39:58.640Z,22.30
2019-02-22T08:42:25.617Z,23.00
2019-02-22T08:44:54.047Z,23.23
2019-02-22T08:47:22.287Z,24.70
2019-02-22T08:49:50.432Z,23.97
2019-02-22T08:52:18.693Z,23.90
2019-02-22T08:54:47.520Z,24.20
2019-02-22T08:57:16.186Z,23.13
2019-02-22T08:59:44.325Z,20.97
2019-02-22T09:02:13.110Z,20.40
2019-02-22T09:04:41.518Z,18.47
2019-02-22T09:07:10.840Z,18.37
2019-02-22T09:09:39.293Z,18.40
2019-02-22T09:12:07.661Z,21.27
2019-02-22T09:14:36.156Z,21.67
2019-02-22T09:17:04.871Z,22.67
2019-02-22T09:19:33.370Z,23.00
2019-02-22T09:22:02.335Z,25.40
2019-02-22T09:24:31.388Z,23.97
2019-02-22T09:26:59.554Z,23.37
2019-02-22T09:29:27.679Z,23.07
2019-02-22T09:31:55.922Z,20.93
2019-02-22T09:34:24.470Z,15.47
2019-02-22T09:36:53.388Z,15.43
2019-02-22T09:39:21.823Z,12.33
2019-02-22T09:41:49.989Z,12.53
2019-02-22T09:44:18.890Z,10.47
2019-02-22T09:46:48.059Z,8.83
2019-02-22T09:49:16.304Z,9.13
2019-02-22T09:51:44.498Z,7.73
2019-02-22T09:54:12.697Z,9.63
2019-02-22T09:56:41.841Z,10.73
2019-02-22T09:59:09.914Z,10.10
2019-02-22T10:01:38.102Z,13.10
2019-02-22T10:04:06.616Z,12.87
2019-02-22T10:06:34.735Z,12.80
2019-02-22T10:09:05.768Z,14.27
2019-02-22T10:11:34.058Z,13.03
2019-02-22T10:14:06.602Z,14.80
2019-02-22T10:16:33.887Z,15.40
2019-02-22T10:19:02.030Z,15.33
2019-02-22T10:21:30.402Z,15.30
2019-02-22T10:23:58.498Z,15.33
2019-02-22T10:26:26.570Z,14.37
2019-02-22T10:28:54.678Z,14.40
2019-02-22T10:31:23.003Z,10.80
2019-02-22T10:33:51.088Z,9.53
2019-02-22T10:36:19.846Z,9.50
2019-02-22T10:38:48.283Z,9.70
2019-02-22T10:41:16.743Z,7.30
2019-02-22T10:43:45.003Z,8.37
2019-02-22T10:46:13.037Z,7.40
2019-02-22T10:48:41.164Z,8.23
2019-02-22T10:51:09.230Z,8.87
2019-02-22T10:53:37.325Z,8.57
2019-02-22T10:56:05.495Z,8.23
2019-02-22T10:58:33.740Z,7.90
2019-02-22T11:01:02.117Z,8.40
2019-02-22T11:03:30.611Z,7.67
2019-02-22T11:05:58.697Z,7.47
2019-02-22T11:08:27.305Z,7.40
2019-02-22T11:10:55.493Z,7.67
2019-02-22T11:13:25.420Z,6.50
2019-02-22T11:15:53.702Z,6.57
2019-02-22T11:18:21.937Z,6.70
2019-02-22T11:20:51.622Z,6.40
2019-02-22T11:23:19.844Z,6.47
2019-02-22T11:25:48.069Z,6.53
2019-02-22T11:28:16.557Z,6.90
2019-02-22T11:30:45.060Z,5.30
2019-02-22T11:33:13.216Z,5.13
2019-02-22T11:35:41.429Z,5.03
2019-02-22T11:38:09.486Z,4.47
2019-02-22T11:40:37.690Z,4.50
2019-02-22T11:43:05.875Z,5.00
2019-02-22T11:45:34.123Z,5.20
2019-02-22T11:48:09.234Z,5.77
2019-02-22T11:50:32.254Z,5.23
2019-02-22T11:53:02.123Z,5.83
2019-02-22T11:55:30.726Z,5.17
2019-02-22T11:57:58.890Z,4.97
2019-02-22T12:00:29.096Z,4.47
2019-02-22T12:02:57.184Z,5.23
2019-02-22T12:05:25.396Z,5.17
2019-02-22T12:07:53.787Z,5.33
2019-02-22T12:10:22.448Z,5.27
2019-02-22T12:12:50.874Z,5.10
2019-02-22T12:15:19.014Z,5.00
2019-02-22T12:17:47.082Z,4.90
2019-02-22T12:20:15.700Z,5.07
2019-02-22T12:22:43.992Z,4.97
2019-02-22T12:25:12.201Z,4.80
2019-02-22T12:27:40.282Z,4.60
2019-02-22T12:30:11.426Z,4.53
2019-02-22T12:32:39.783Z,4.90
2019-02-22T12:35:08.130Z,4.97
2019-02-22T12:37:36.215Z,4.80
2019-02-22T12:40:05.210Z,4.60
2019-02-22T12:42:33.531Z,4.70
2019-02-22T12:45:04.046Z,4.80
2019-02-22T12:47:32.184Z,4.53
2019-02-22T12:50:00.360Z,4.47
2019-02-22T12:52:28.528Z,4.20
2019-02-22T12:54:56.611Z,4.37
2019-02-22T12:57:24.734Z,4.50
2019-02-22T12:59:52.951Z,4.30
2019-02-22T13:02:21.163Z,4.27
2019-02-22T13:04:49.269Z,4.93
2019-02-22T13:07:17.389Z,4.27
2019-02-22T13:09:45.573Z,5.03
2019-02-22T13:12:16.527Z,4.70
2019-02-22T13:14:43.900Z,4.67
2019-02-22T13:17:12.023Z,4.83
2019-02-22T13:19:40.098Z,5.10
2019-02-22T13:22:08.473Z,5.30
2019-02-22T13:24:36.593Z,3.83
2019-02-22T13:27:04.829Z,4.50
2019-02-22T13:29:33.716Z,4.30
2019-02-22T13:32:01.835Z,4.27
2019-02-22T13:34:29.895Z,5.37
2019-02-22T13:36:58.393Z,4.37
2019-02-22T13:39:26.682Z,4.40
2019-02-22T13:41:54.834Z,4.50
2019-02-22T13:44:23.219Z,4.10
2019-02-22T13:46:51.634Z,4.33
2019-02-22T13:49:19.885Z,4.13
2019-02-22T13:51:48.096Z,4.47
2019-02-22T13:54:16.279Z,4.23
2019-02-22T13:56:44.440Z,4.40
2019-02-22T13:59:12.542Z,4.37
2019-02-22T14:01:40.670Z,4.53
2019-02-22T14:04:08.883Z,4.23
2019-02-22T14:06:36.950Z,4.40
2019-02-22T14:09:06.256Z,3.77
2019-02-22T14:11:34.500Z,4.27
2019-02-22T14:14:02.695Z,4.27
2019-02-22T14:16:30.773Z,4.13
2019-02-22T14:18:58.885Z,4.20
2019-02-22T14:21:27.282Z,4.00
2019-02-22T14:23:56.138Z,4.30
2019-02-22T14:26:24.530Z,3.67
2019-02-22T14:28:52.628Z,3.67
2019-02-22T14:31:20.761Z,4.10
2019-02-22T14:33:48.808Z,3.17
2019-02-22T14:36:17.085Z,3.60
2019-02-22T14:38:45.552Z,3.53
2019-02-22T14:41:13.827Z,3.53
2019-02-22T14:43:41.900Z,3.37
2019-02-22T14:46:10.112Z,3.53
2019-02-22T14:48:38.196Z,3.60
2019-02-22T14:51:06.777Z,3.47
2019-02-22T14:53:34.835Z,3.53
2019-02-22T14:56:02.934Z,3.47
2019-02-22T14:58:30.988Z,3.10
2019-02-22T15:00:59.113Z,3.50
2019-02-22T15:03:27.533Z,3.33
2019-02-22T15:05:55.658Z,3.43
2019-02-22T15:08:24.032Z,3.00
2019-02-22T15:10:52.574Z,3.47
2019-02-22T15:13:20.881Z,3.23
2019-02-22T15:16:07.483Z,3.20
2019-02-22T15:18:35.573Z,3.47
2019-02-22T15:21:03.746Z,3.00
2019-02-22T15:23:31.789Z,3.03
2019-02-22T15:25:59.979Z,3.30
2019-02-22T15:28:28.154Z,3.33
2019-02-22T15:30:56.583Z,3.10
2019-02-22T15:33:24.739Z,3.57
2019-02-22T15:35:53.113Z,3.50
2019-02-22T15:38:21.513Z,3.40
2019-02-22T15:40:49.579Z,3.13
2019-02-22T15:43:17.999Z,3.00
2019-02-22T15:45:47.127Z,3.20
2019-02-22T15:48:16.922Z,3.03
2019-02-22T15:50:45.046Z,3.00
2019-02-22T15:53:13.701Z,2.93
2019-02-22T15:55:41.752Z,3.07
2019-02-22T15:58:09.907Z,2.83
2019-02-22T16:00:37.934Z,3.43
2019-02-22T16:03:06.315Z,3.37
2019-02-22T16:05:40.265Z,3.40
2019-02-22T16:08:10.386Z,3.00
2019-02-22T16:10:40.650Z,3.03
2019-02-22T16:13:10.078Z,3.27
2019-02-22T16:15:40.598Z,3.10
2019-02-22T16:18:09.059Z,3.17
2019-02-22T16:20:37.629Z,3.67
2019-02-22T16:23:05.806Z,3.40
2019-02-22T16:25:34.340Z,3.50
2019-02-22T16:28:02.463Z,3.73
2019-02-22T16:30:32.562Z,4.47
2019-02-22T16:33:00.666Z,4.40
2019-02-22T16:35:29.041Z,3.33
2019-02-22T16:37:57.395Z,4.53
2019-02-22T16:40:25.567Z,3.40
2019-02-22T16:42:53.964Z,3.57
2019-02-22T16:45:22.687Z,3.90
2019-02-22T16:47:50.843Z,4.10
2019-02-22T16:50:19.839Z,3.43
2019-02-22T16:52:48.085Z,3.50
2019-02-22T16:55:16.266Z,3.67
2019-02-22T16:57:44.362Z,3.20
2019-02-22T17:00:13.207Z,3.53
2019-02-22T17:02:41.547Z,3.47
2019-02-22T17:05:12.050Z,3.37
2019-02-22T17:07:40.549Z,4.00
2019-02-22T17:10:09.645Z,3.67
2019-02-22T17:12:38.182Z,3.53
2019-02-22T17:15:11.196Z,2.87
2019-02-22T17:17:39.252Z,3.40
2019-02-22T17:20:09.625Z,3.40
2019-02-22T17:22:37.685Z,3.60
2019-02-22T17:25:08.293Z,3.17
2019-02-22T17:27:36.383Z,4.13
2019-02-22T17:30:05.931Z,2.80
2019-02-22T17:32:34.343Z,3.07
2019-02-22T17:35:02.912Z,4.53
2019-02-22T17:37:31.080Z,4.33
2019-02-22T17:39:59.156Z,4.73
2019-02-22T17:42:27.638Z,3.20
2019-02-22T17:44:56.131Z,5.37
2019-02-22T17:47:24.501Z,3.67
2019-02-22T17:49:52.622Z,4.37
2019-02-22T17:52:20.749Z,3.93
2019-02-22T17:54:48.931Z,3.83
2019-02-22T17:57:17.530Z,3.50
2019-02-22T17:59:45.671Z,3.83
2019-02-22T18:02:13.962Z,3.63
2019-02-22T18:04:42.065Z,3.17
2019-02-22T18:07:10.138Z,3.73
2019-02-22T18:09:38.450Z,3.87
2019-02-22T18:12:07.668Z,3.40
2019-02-22T18:14:35.846Z,3.73
2019-02-22T18:17:08.474Z,4.50
2019-02-22T18:19:34.957Z,3.30
2019-02-22T18:22:03.099Z,3.43
2019-02-22T18:24:31.351Z,3.80
2019-02-22T18:26:59.596Z,4.07
2019-02-22T18:29:35.036Z,4.00
2019-02-22T18:31:58.185Z,5.33
2019-02-22T18:34:26.399Z,4.30
2019-02-22T18:36:54.489Z,6.73
2019-02-22T18:39:22.676Z,7.70
2019-02-22T18:41:50.751Z,7.20
2019-02-22T18:44:19.320Z,5.40
2019-02-22T18:46:47.552Z,4.97
2019-02-22T18:49:16.152Z,4.20
2019-02-22T18:51:44.308Z,4.10
2019-02-22T18:54:12.490Z,4.67
2019-02-22T18:56:42.051Z,4.53
2019-02-22T18:59:11.060Z,4.97
2019-02-22T19:01:39.312Z,4.97
2019-02-22T19:04:07.474Z,5.97
2019-02-22T19:06:35.568Z,5.17
2019-02-22T19:09:05.478Z,6.17
2019-02-22T19:11:34.075Z,5.60
2019-02-22T19:14:02.170Z,5.60
2019-02-22T19:16:30.642Z,6.07
2019-02-22T19:18:58.773Z,5.50
2019-02-22T19:21:26.833Z,6.47
2019-02-22T19:23:54.974Z,6.60
2019-02-22T19:26:23.254Z,6.53
2019-02-22T19:28:51.799Z,6.00
2019-02-22T19:31:20.119Z,6.57
2019-02-22T19:33:49.906Z,6.43
2019-02-22T19:36:18.344Z,8.90
2019-02-22T19:38:47.067Z,7.93
2019-02-22T19:41:15.419Z,8.67
2019-02-22T19:43:43.849Z,7.47
2019-02-22T19:46:12.072Z,7.03
2019-02-22T19:48:41.000Z,7.00
2019-02-22T19:51:09.230Z,6.70
2019-02-22T19:53:38.118Z,5.80
2019-02-22T19:56:06.790Z,6.27
2019-02-22T19:58:35.244Z,7.67
2019-02-22T20:01:04.149Z,11.20
2019-02-22T20:03:32.479Z,6.33
2019-02-22T20:06:01.266Z,5.67
2019-02-22T20:08:30.263Z,6.30
2019-02-22T20:10:58.729Z,5.97
2019-02-22T20:13:27.209Z,6.13
2019-02-22T20:15:55.613Z,6.23
2019-02-22T20:18:24.311Z,5.93
2019-02-22T20:20:52.921Z,6.50
2019-02-22T20:23:21.301Z,6.50
2019-02-22T20:25:49.693Z,7.33
2019-02-22T20:28:18.020Z,6.23
2019-02-22T20:30:46.574Z,6.10
2019-02-22T20:33:14.906Z,6.33
2019-02-22T20:35:43.401Z,6.70
2019-02-22T20:38:11.780Z,9.47
2019-02-22T20:40:40.649Z,6.03
2019-02-22T20:43:09.173Z,6.80
2019-02-22T20:45:37.619Z,7.40
2019-02-22T20:48:06.224Z,8.00
2019-02-22T20:50:34.536Z,8.10
2019-02-22T20:53:03.367Z,8.00
2019-02-22T20:55:31.872Z,6.83
2019-02-22T20:58:01.656Z,7.60
2019-02-22T21:00:29.949Z,7.90
2019-02-22T21:02:58.240Z,6.80
2019-02-22T21:05:26.581Z,7.30
2019-02-22T21:07:54.828Z,7.13
2019-02-22T21:10:23.381Z,6.40
2019-02-22T21:12:51.653Z,8.23
2019-02-22T21:15:21.367Z,9.77
2019-02-22T21:17:51.314Z,9.67
2019-02-22T21:20:19.473Z,9.13
2019-02-22T21:22:47.562Z,8.70
2019-02-22T21:25:15.644Z,7.27
2019-02-22T21:27:43.765Z,7.23
2019-02-22T21:30:13.070Z,6.30
2019-02-22T21:32:41.352Z,6.20
2019-02-22T21:35:09.787Z,6.30
2019-02-22T21:37:37.931Z,5.80
2019-02-22T21:40:08.230Z,6.13
2019-02-22T21:42:36.337Z,7.43
2019-02-22T21:45:04.594Z,9.73
2019-02-22T21:47:32.678Z,8.97
2019-02-22T21:50:01.155Z,7.93
2019-02-22T21:52:29.449Z,7.07
2019-02-22T21:54:57.562Z,6.80
2019-02-22T21:57:25.676Z,7.27
2019-02-22T21:59:53.798Z,5.43
2019-02-22T22:02:22.278Z,6.30
2019-02-22T22:04:50.385Z,7.27
2019-02-22T22:07:20.501Z,5.87
2019-02-22T22:09:50.338Z,6.63
2019-02-22T22:12:18.485Z,6.50
2019-02-22T22:14:46.574Z,6.63
2019-02-22T22:17:14.691Z,6.77
2019-02-22T22:19:42.791Z,6.47
2019-02-22T22:22:11.435Z,6.97
2019-02-22T22:24:39.556Z,7.70
2019-02-22T22:27:08.986Z,8.17
2019-02-22T22:29:37.735Z,7.10
2019-02-22T22:32:05.775Z,7.57
2019-02-22T22:34:34.048Z,7.40
2019-02-22T22:37:02.394Z,6.90
2019-02-22T22:39:30.899Z,7.67
2019-02-22T22:41:59.588Z,7.63
2019-02-22T22:44:27.754Z,7.43
2019-02-22T22:46:55.952Z,7.50
2019-02-22T22:49:24.065Z,7.90
2019-02-22T22:51:53.302Z,8.40
2019-02-22T22:54:21.354Z,8.27
2019-02-22T22:56:50.518Z,8.20
2019-02-22T22:59:18.654Z,6.97
2019-02-22T23:01:47.427Z,8.30
2019-02-22T23:04:15.482Z,8.10
2019-02-22T23:06:44.582Z,8.50
2019-02-22T23:09:21.164Z,8.07
2019-02-22T23:11:49.664Z,8.23
2019-02-22T23:14:17.801Z,8.47
2019-02-22T23:16:46.007Z,9.17
2019-02-22T23:19:14.187Z,8.70
2019-02-22T23:21:42.255Z,7.93
2019-02-22T23:24:11.856Z,8.50
2019-02-22T23:26:39.947Z,8.20
2019-02-22T23:29:08.067Z,9.43
2019-02-22T23:31:36.141Z,8.87
2019-02-22T23:34:04.222Z,8.93
2019-02-22T23:36:32.401Z,8.90
2019-02-22T23:39:00.859Z,8.33
2019-02-22T23:41:28.942Z,9.40
2019-02-22T23:43:57.346Z,8.27
2019-02-22T23:46:25.422Z,8.90
2019-02-22T23:48:53.590Z,8.43
2019-02-22T23:51:21.680Z,10.33
2019-02-22T23:53:49.898Z,10.30
2019-02-22T23:56:18.249Z,10.43
2019-02-22T23:58:46.349Z,9.70
